Time;durP1;ratioP1;P1;durP2;ratioP2;P2;SDS_P1;SDS_P2;PMS_P1;PMS_P2;Temp;Humidity;BMP_temperature;BMP_pressure;BME280_temperature;BME280_humidity;BME280_pressure;Samples;Min_cycle;Max_cycle;Signal;HPM_P1;HPM_P2
2021/09/05 00:02:21;;;;;;;26.33;16.20;;;15.40;99.90;;;;;;5011681;28;25107;-72
2021/09/05 00:04:46;;;;;;;25.63;14.68;;;15.30;99.90;;;;;;5001619;28;25162;-73
2021/09/05 00:07:12;;;;;;;25.02;14.63;;;15.20;99.90;;;;;;5000742;28;25059;-71
2021/09/05 00:09:38;;;;;;;25.42;14.80;;;15.30;99.90;;;;;;5011731;28;25134;-74
2021/09/05 00:12:04;;;;;;;22.17;14.98;;;15.40;99.90;;;;;;5012213;28;25144;-71
2021/09/05 00:14:30;;;;;;;28.92;16.63;;;15.40;99.90;;;;;;5004882;28;25069;-72
2021/09/05 00:16:56;;;;;;;23.15;15.43;;;15.30;99.90;;;;;;5008548;28;25060;-73
2021/09/05 00:19:22;;;;;;;22.23;14.43;;;15.10;99.90;;;;;;5016026;28;25057;-74
2021/09/05 00:21:48;;;;;;;27.75;15.20;;;15.00;99.90;;;;;;5011723;28;25082;-72
2021/09/05 00:24:13;;;;;;;26.17;15.68;;;15.10;99.90;;;;;;5003131;28;25064;-72
2021/09/05 00:26:39;;;;;;;25.70;15.00;;;15.00;99.90;;;;;;5003581;28;25062;-71
2021/09/05 00:29:04;;;;;;;26.27;14.68;;;15.00;99.90;;;;;;5008846;28;25107;-71
2021/09/05 00:31:30;;;;;;;26.10;15.50;;;15.00;99.90;;;;;;5000205;28;25059;-72
2021/09/05 00:34:03;;;;;;;24.77;15.80;;;15.00;99.90;;;;;;5010630;28;25075;-71
2021/09/05 00:36:28;;;;;;;22.35;13.65;;;14.90;99.90;;;;;;5001549;28;25059;-73
2021/09/05 00:38:54;;;;;;;26.05;16.15;;;14.80;99.90;;;;;;4999834;28;25060;-74
2021/09/05 00:41:20;;;;;;;24.08;14.13;;;14.90;99.90;;;;;;5010778;28;25058;-73
2021/09/05 00:44:05;;;;;;;22.42;14.88;;;14.90;99.90;;;;;;5010173;28;25084;-74
2021/09/05 00:46:33;;;;;;;27.65;15.77;;;14.90;99.90;;;;;;5011607;28;25073;-71
2021/09/05 00:48:59;;;;;;;26.90;14.63;;;15.00;99.90;;;;;;5011267;28;25076;-71
2021/09/05 00:51:29;;;;;;;24.98;14.52;;;15.00;99.90;;;;;;5002108;28;25186;-71
2021/09/05 00:54:00;;;;;;;25.42;15.82;;;15.10;99.90;;;;;;5003061;28;25072;-71
2021/09/05 00:56:29;;;;;;;25.67;15.23;;;15.10;99.90;;;;;;5005531;28;25119;-71
2021/09/05 00:58:56;;;;;;;22.08;14.25;;;15.20;99.90;;;;;;5013156;28;25077;-73
2021/09/05 01:01:22;;;;;;;28.00;15.95;;;15.10;99.90;;;;;;5000597;28;25064;-72
2021/09/05 01:03:48;;;;;;;23.80;15.15;;;15.00;99.90;;;;;;5006928;28;25095;-72
2021/09/05 01:06:14;;;;;;;24.90;15.57;;;15.00;99.90;;;;;;5010248;28;25078;-72
2021/09/05 01:08:41;;;;;;;26.38;14.80;;;15.00;99.90;;;;;;5009498;28;25060;-72
2021/09/05 01:11:06;;;;;;;24.65;15.07;;;14.90;99.90;;;;;;4996919;28;25084;-72
2021/09/05 01:13:34;;;;;;;20.40;13.48;;;14.80;99.90;;;;;;5010121;28;25070;-73
2021/09/05 01:15:59;;;;;;;24.10;15.00;;;15.00;99.90;;;;;;5010725;28;25059;-72
2021/09/05 01:18:25;;;;;;;24.98;15.93;;;14.90;99.90;;;;;;5019246;28;25104;-72
2021/09/05 01:20:51;;;;;;;25.08;14.23;;;14.80;99.90;;;;;;5017004;28;25068;-73
2021/09/05 01:23:17;;;;;;;23.13;15.40;;;14.80;99.90;;;;;;5027256;28;25066;-74
2021/09/05 01:25:44;;;;;;;25.73;16.42;;;14.70;99.90;;;;;;5018288;28;25071;-72
2021/09/05 01:28:11;;;;;;;21.65;15.32;;;14.60;99.90;;;;;;5009672;28;25081;-72
2021/09/05 01:30:38;;;;;;;25.40;16.55;;;14.70;99.90;;;;;;5010126;28;25108;-73
2021/09/05 01:33:04;;;;;;;29.08;16.13;;;14.60;99.90;;;;;;5009692;28;25164;-73
2021/09/05 01:35:33;;;;;;;30.45;16.30;;;14.50;99.90;;;;;;5010401;28;25066;-73
2021/09/05 01:37:59;;;;;;;22.63;15.40;;;14.50;99.90;;;;;;5001064;28;25055;-71
2021/09/05 01:40:24;;;;;;;24.98;16.20;;;14.40;99.90;;;;;;5010718;28;25124;-72
2021/09/05 01:42:50;;;;;;;23.88;16.15;;;14.40;99.90;;;;;;5000865;28;25117;-73
2021/09/05 01:45:17;;;;;;;29.23;15.85;;;14.30;99.90;;;;;;5005792;28;25110;-72
2021/09/05 01:47:43;;;;;;;29.00;16.67;;;14.40;99.90;;;;;;5003980;28;25089;-71
2021/09/05 01:50:09;;;;;;;26.45;16.40;;;14.40;99.90;;;;;;4998746;28;25064;-73
2021/09/05 01:52:35;;;;;;;24.33;15.80;;;14.40;99.90;;;;;;5009517;28;25091;-71
2021/09/05 01:55:00;;;;;;;30.88;16.80;;;14.40;99.90;;;;;;5013792;28;25074;-74
2021/09/05 01:57:26;;;;;;;30.25;17.33;;;14.40;99.90;;;;;;5010891;28;25084;-71
2021/09/05 01:59:51;;;;;;;24.85;16.17;;;14.30;99.90;;;;;;5008726;28;25077;-72
2021/09/05 02:02:17;;;;;;;26.20;15.82;;;14.40;99.90;;;;;;5011762;28;25095;-71
2021/09/05 02:04:44;;;;;;;29.17;16.45;;;14.40;99.90;;;;;;5008136;28;25071;-72
2021/09/05 02:07:09;;;;;;;29.38;16.20;;;14.50;99.90;;;;;;5008019;28;25091;-71
2021/09/05 02:09:35;;;;;;;29.77;16.80;;;14.50;99.90;;;;;;5002287;28;25094;-73
2021/09/05 02:12:00;;;;;;;30.50;17.05;;;14.50;99.90;;;;;;5007040;28;25126;-73
2021/09/05 02:14:26;;;;;;;25.98;16.45;;;14.60;99.90;;;;;;5006512;28;25138;-72
2021/09/05 02:16:52;;;;;;;26.75;15.98;;;14.60;99.90;;;;;;5005770;28;25082;-72
2021/09/05 02:19:18;;;;;;;29.92;17.52;;;14.70;99.90;;;;;;5008847;28;25090;-73
2021/09/05 02:21:43;;;;;;;35.50;18.48;;;14.70;99.90;;;;;;5009021;28;25072;-72
2021/09/05 02:24:09;;;;;;;32.35;17.05;;;14.60;99.90;;;;;;5002498;28;25109;-73
2021/09/05 02:26:34;;;;;;;30.65;17.15;;;14.40;99.90;;;;;;5009578;28;25088;-73
2021/09/05 02:29:00;;;;;;;25.15;15.93;;;14.40;99.90;;;;;;5008112;28;25066;-71
2021/09/05 02:31:26;;;;;;;32.35;17.70;;;14.40;99.90;;;;;;5010774;28;25098;-73
2021/09/05 02:33:51;;;;;;;26.25;16.95;;;14.30;99.90;;;;;;5013644;28;25083;-74
2021/09/05 02:36:17;;;;;;;30.60;17.65;;;14.20;99.90;;;;;;5012160;28;25083;-72
2021/09/05 02:38:42;;;;;;;32.97;17.83;;;14.10;99.90;;;;;;5013067;28;25076;-72
2021/09/05 02:41:08;;;;;;;30.17;17.75;;;14.20;99.90;;;;;;5013263;28;25061;-73
2021/09/05 02:43:33;;;;;;;25.50;17.83;;;14.20;99.90;;;;;;5013681;28;25099;-73
2021/09/05 02:45:59;;;;;;;26.70;17.10;;;14.20;99.90;;;;;;5005060;28;25097;-71
2021/09/05 02:48:25;;;;;;;28.58;18.58;;;14.10;99.90;;;;;;5005610;28;25135;-73
2021/09/05 02:50:50;;;;;;;31.30;17.17;;;14.00;99.90;;;;;;5016977;28;25093;-72
2021/09/05 02:53:16;;;;;;;26.75;16.95;;;13.90;99.90;;;;;;5012606;28;25100;-72
2021/09/05 02:55:41;;;;;;;31.27;17.90;;;14.00;99.90;;;;;;5013319;28;25058;-72
2021/09/05 02:58:07;;;;;;;26.35;15.73;;;13.90;99.90;;;;;;5009508;28;25093;-72
2021/09/05 03:00:32;;;;;;;38.75;19.83;;;14.00;99.90;;;;;;5005392;28;25119;-71
2021/09/05 03:02:58;;;;;;;29.98;18.17;;;13.90;99.90;;;;;;5012333;28;25079;-71
2021/09/05 03:05:23;;;;;;;32.75;19.65;;;13.90;99.90;;;;;;5006433;28;25071;-70
2021/09/05 03:07:49;;;;;;;29.50;18.33;;;13.70;99.90;;;;;;5011790;28;25057;-73
2021/09/05 03:10:15;;;;;;;32.63;19.30;;;13.70;99.90;;;;;;5011248;28;25050;-72
2021/09/05 03:12:40;;;;;;;28.67;18.50;;;13.70;99.90;;;;;;5012368;28;25061;-72
2021/09/05 03:15:08;;;;;;;29.02;17.35;;;13.70;99.90;;;;;;5013218;28;25094;-71
2021/09/05 03:17:35;;;;;;;34.63;19.60;;;13.70;99.90;;;;;;5011602;28;25073;-74
2021/09/05 03:20:01;;;;;;;29.20;17.58;;;13.70;99.90;;;;;;5012064;28;25059;-73
2021/09/05 03:22:26;;;;;;;29.00;17.98;;;13.70;99.90;;;;;;5012675;28;25085;-71
2021/09/05 03:24:52;;;;;;;34.55;18.73;;;13.70;99.90;;;;;;5013512;28;25092;-72
2021/09/05 03:27:17;;;;;;;30.75;18.83;;;13.60;99.90;;;;;;5010522;28;25102;-73
2021/09/05 03:29:43;;;;;;;29.10;17.75;;;13.70;99.90;;;;;;5011677;28;25064;-72
2021/09/05 03:32:08;;;;;;;29.50;19.17;;;13.60;99.90;;;;;;5013022;28;25070;-72
2021/09/05 03:34:34;;;;;;;29.17;19.05;;;13.60;99.90;;;;;;5012192;28;25083;-70
2021/09/05 03:37:00;;;;;;;27.35;18.45;;;13.60;99.90;;;;;;5011832;28;25163;-71
2021/09/05 03:39:25;;;;;;;30.70;18.08;;;13.60;99.90;;;;;;5003083;28;25075;-72
2021/09/05 03:41:51;;;;;;;32.17;18.40;;;13.70;99.90;;;;;;5012568;28;25072;-71
2021/09/05 03:44:16;;;;;;;26.85;17.75;;;13.70;99.90;;;;;;5011240;28;25079;-72
2021/09/05 03:46:42;;;;;;;35.47;19.48;;;13.70;99.90;;;;;;5007892;28;25145;-71
2021/09/05 03:49:07;;;;;;;34.60;20.23;;;13.70;99.90;;;;;;4999473;28;25149;-72
2021/09/05 03:51:36;;;;;;;30.70;20.17;;;13.60;99.90;;;;;;5009196;28;25112;-73
2021/09/05 03:54:02;;;;;;;32.00;20.13;;;13.40;99.90;;;;;;5010376;28;25080;-73
2021/09/05 03:56:27;;;;;;;33.65;20.60;;;13.30;99.90;;;;;;5012283;28;25088;-72
2021/09/05 03:58:53;;;;;;;30.95;19.58;;;13.30;99.90;;;;;;5011098;28;25112;-72
2021/09/05 04:01:18;;;;;;;35.33;18.33;;;13.20;99.90;;;;;;4997970;28;25070;-72
2021/09/05 04:03:44;;;;;;;34.05;20.48;;;13.30;99.90;;;;;;5008534;28;25108;-71
2021/09/05 04:06:09;;;;;;;35.72;19.77;;;13.20;99.90;;;;;;5012703;28;25084;-73
2021/09/05 04:08:41;;;;;;;33.00;18.73;;;13.10;99.90;;;;;;5014008;28;25065;-71
2021/09/05 04:11:07;;;;;;;30.10;18.35;;;13.20;99.90;;;;;;5004746;28;25053;-70
2021/09/05 04:13:32;;;;;;;34.47;18.48;;;13.30;99.90;;;;;;5008466;28;25056;-72
2021/09/05 04:15:58;;;;;;;31.77;20.60;;;13.30;99.90;;;;;;5015121;28;25052;-71
2021/09/05 04:18:25;;;;;;;33.20;19.65;;;13.30;99.90;;;;;;5028189;28;25067;-71
2021/09/05 04:20:51;;;;;;;38.83;20.55;;;13.30;99.90;;;;;;5034334;28;25060;-72
2021/09/05 04:23:17;;;;;;;34.47;20.50;;;13.20;99.90;;;;;;5034559;28;25110;-72
2021/09/05 04:25:42;;;;;;;34.20;20.80;;;13.30;99.90;;;;;;5028299;28;25074;-71
2021/09/05 04:28:09;;;;;;;28.75;19.98;;;13.30;99.90;;;;;;5016064;28;25062;-73
2021/09/05 04:30:34;;;;;;;29.58;18.45;;;13.30;99.90;;;;;;5013076;28;25094;-73
2021/09/05 04:33:00;;;;;;;35.65;20.00;;;13.30;99.90;;;;;;5011237;28;25063;-74
2021/09/05 04:35:26;;;;;;;29.88;19.55;;;13.30;99.90;;;;;;5008308;28;25066;-71
2021/09/05 04:37:51;;;;;;;29.27;17.58;;;13.30;99.90;;;;;;5005441;28;25427;-72
2021/09/05 04:40:17;;;;;;;34.08;19.13;;;13.30;99.90;;;;;;5002723;28;25061;-72
2021/09/05 04:42:42;;;;;;;32.58;18.13;;;13.30;99.90;;;;;;5003791;28;25138;-71
2021/09/05 04:45:08;;;;;;;39.45;20.20;;;13.30;99.90;;;;;;5000007;28;25104;-71
2021/09/05 04:47:35;;;;;;;30.42;19.48;;;13.30;99.90;;;;;;4996109;28;25078;-72
2021/09/05 04:50:01;;;;;;;31.80;18.35;;;13.10;99.90;;;;;;4996083;28;25074;-73
2021/09/05 04:52:26;;;;;;;29.73;18.38;;;13.10;99.90;;;;;;4998064;28;25049;-74
2021/09/05 04:54:52;;;;;;;31.35;19.25;;;13.10;99.90;;;;;;5002975;28;25079;-72
2021/09/05 04:57:17;;;;;;;30.65;18.77;;;13.20;99.90;;;;;;5007381;28;25054;-71
2021/09/05 04:59:43;;;;;;;32.40;19.48;;;13.20;99.90;;;;;;5001963;28;25079;-72
2021/09/05 05:02:08;;;;;;;35.42;18.20;;;13.20;99.90;;;;;;4996140;28;25064;-72
2021/09/05 05:04:34;;;;;;;33.53;18.77;;;13.30;99.90;;;;;;4996424;28;25060;-72
2021/09/05 05:06:59;;;;;;;32.65;18.13;;;13.30;99.90;;;;;;5001591;28;25097;-73
2021/09/05 05:09:25;;;;;;;30.63;18.13;;;13.40;99.90;;;;;;5001234;28;25050;-71
2021/09/05 05:11:51;;;;;;;34.15;18.40;;;13.40;99.90;;;;;;5007663;28;25072;-71
2021/09/05 05:14:16;;;;;;;27.73;17.63;;;13.40;99.90;;;;;;5010148;28;25067;-73
2021/09/05 05:16:42;;;;;;;24.38;16.98;;;13.40;99.90;;;;;;5010178;28;25069;-71
2021/09/05 05:19:07;;;;;;;27.50;16.35;;;13.50;99.90;;;;;;5009020;28;25137;-72
2021/09/05 05:21:33;;;;;;;34.80;19.42;;;13.50;99.90;;;;;;5010217;28;24901;-71
2021/09/05 05:23:59;;;;;;;32.90;19.08;;;13.30;99.90;;;;;;5010577;28;25070;-72
2021/09/05 05:26:26;;;;;;;32.13;18.67;;;13.10;99.90;;;;;;5011547;28;25077;-72
2021/09/05 05:28:52;;;;;;;36.55;18.50;;;13.00;99.90;;;;;;5004135;28;25064;-71
2021/09/05 05:31:18;;;;;;;32.88;18.05;;;13.10;99.90;;;;;;5009389;28;25056;-73
2021/09/05 05:33:44;;;;;;;35.75;17.98;;;13.20;99.90;;;;;;5008711;28;25085;-72
2021/09/05 05:36:10;;;;;;;33.20;17.95;;;13.10;99.90;;;;;;5006532;28;25090;-71
2021/09/05 05:38:37;;;;;;;34.03;17.33;;;13.20;99.90;;;;;;5003157;28;25106;-72
2021/09/05 05:41:03;;;;;;;34.35;19.67;;;13.10;99.90;;;;;;5003069;28;25075;-72
2021/09/05 05:43:29;;;;;;;40.40;20.00;;;13.20;99.90;;;;;;5002044;28;25066;-74
2021/09/05 05:45:54;;;;;;;33.10;18.95;;;13.20;99.90;;;;;;5011308;28;25086;-73
2021/09/05 05:48:20;;;;;;;33.55;18.95;;;13.20;99.90;;;;;;5009998;28;25061;-74
2021/09/05 05:50:47;;;;;;;33.45;18.30;;;13.20;99.90;;;;;;5007708;28;25126;-74
2021/09/05 05:53:14;;;;;;;33.35;18.90;;;13.20;99.90;;;;;;5009665;28;25107;-73
2021/09/05 05:55:40;;;;;;;33.08;17.77;;;13.20;99.90;;;;;;5009186;28;25146;-73
2021/09/05 05:58:06;;;;;;;28.00;18.33;;;13.30;99.90;;;;;;5008257;28;25069;-71
2021/09/05 06:00:32;;;;;;;29.08;17.52;;;13.50;99.90;;;;;;5010270;28;25077;-73
2021/09/05 06:02:58;;;;;;;28.35;16.63;;;13.60;99.90;;;;;;5010091;28;25013;-74
2021/09/05 06:05:24;;;;;;;29.80;18.55;;;13.80;99.90;;;;;;5008902;28;25107;-73
2021/09/05 06:07:49;;;;;;;31.77;18.92;;;13.80;99.90;;;;;;5008477;28;25064;-73
2021/09/05 06:10:16;;;;;;;31.70;18.05;;;13.80;99.90;;;;;;5009456;28;25061;-73
2021/09/05 06:12:42;;;;;;;32.53;18.83;;;13.80;99.90;;;;;;5005963;28;25076;-72
2021/09/05 06:15:08;;;;;;;33.00;19.38;;;13.70;99.90;;;;;;5009351;28;25096;-72
2021/09/05 06:17:34;;;;;;;31.40;19.52;;;13.60;99.90;;;;;;4995134;28;25074;-72
2021/09/05 06:20:00;;;;;;;29.30;17.52;;;13.40;99.90;;;;;;5009441;28;25059;-73
2021/09/05 06:22:25;;;;;;;35.10;18.92;;;13.40;99.90;;;;;;5000405;28;25074;-74
2021/09/05 06:24:51;;;;;;;27.75;18.30;;;13.30;99.90;;;;;;5008477;28;25077;-73
2021/09/05 06:27:16;;;;;;;32.95;18.33;;;13.30;99.90;;;;;;5007262;28;25106;-71
2021/09/05 06:29:42;;;;;;;32.45;18.13;;;13.30;99.90;;;;;;5007580;28;25102;-72
2021/09/05 06:32:08;;;;;;;27.92;17.60;;;13.40;99.90;;;;;;5009738;28;25077;-71
2021/09/05 06:34:34;;;;;;;31.85;18.63;;;13.60;99.90;;;;;;5011054;28;25155;-71
2021/09/05 06:36:59;;;;;;;32.92;18.67;;;13.60;99.90;;;;;;5009798;28;25087;-71
2021/09/05 06:39:25;;;;;;;29.10;17.42;;;13.50;99.90;;;;;;4999322;28;25113;-72
2021/09/05 06:41:51;;;;;;;31.20;17.88;;;13.60;99.90;;;;;;5000936;28;25069;-72
2021/09/05 06:44:17;;;;;;;29.42;17.60;;;13.70;99.90;;;;;;5009812;28;25052;-75
2021/09/05 06:46:43;;;;;;;30.23;17.90;;;13.60;99.90;;;;;;5009388;28;25060;-73
2021/09/05 06:49:08;;;;;;;25.35;16.98;;;13.70;99.90;;;;;;5009963;28;25099;-72
2021/09/05 06:51:34;;;;;;;30.33;17.42;;;13.90;99.90;;;;;;5007984;28;25072;-73
2021/09/05 06:54:00;;;;;;;31.30;18.55;;;13.80;99.90;;;;;;5007995;28;25076;-71
2021/09/05 06:56:25;;;;;;;33.70;19.23;;;13.90;99.90;;;;;;5006888;28;25152;-73
2021/09/05 06:58:51;;;;;;;31.55;17.33;;;13.90;99.90;;;;;;5007260;28;25093;-73
2021/09/05 07:01:17;;;;;;;31.70;18.05;;;13.90;99.90;;;;;;5004810;28;25080;-73
2021/09/05 07:03:42;;;;;;;34.83;18.73;;;13.90;99.90;;;;;;5000811;28;25111;-72
2021/09/05 07:06:08;;;;;;;30.55;18.75;;;14.00;99.90;;;;;;5007879;28;25075;-71
2021/09/05 07:08:33;;;;;;;27.92;17.27;;;14.00;99.90;;;;;;5005293;28;25076;-72
2021/09/05 07:10:59;;;;;;;35.22;18.35;;;14.10;99.90;;;;;;5006706;28;25079;-70
2021/09/05 07:13:24;;;;;;;31.65;18.15;;;14.30;99.90;;;;;;5007458;28;25107;-72
2021/09/05 07:15:50;;;;;;;29.05;17.88;;;14.40;99.90;;;;;;5008796;28;25085;-73
2021/09/05 07:18:16;;;;;;;28.02;18.05;;;14.50;99.90;;;;;;5007419;28;25055;-72
2021/09/05 07:20:41;;;;;;;30.48;16.98;;;14.60;99.90;;;;;;5008706;28;25064;-73
2021/09/05 07:23:07;;;;;;;31.85;17.42;;;14.80;99.90;;;;;;5008711;28;25104;-74
2021/09/05 07:25:33;;;;;;;29.55;16.65;;;14.80;99.90;;;;;;5010300;28;25066;-72
2021/09/05 07:27:58;;;;;;;32.35;16.77;;;14.80;99.90;;;;;;5009130;28;25068;-72
2021/09/05 07:30:24;;;;;;;29.38;18.23;;;14.90;99.90;;;;;;5008987;28;25079;-74
2021/09/05 07:32:50;;;;;;;29.48;17.05;;;14.90;99.90;;;;;;5009377;28;25071;-72
2021/09/05 07:35:15;;;;;;;27.35;16.75;;;15.10;99.90;;;;;;5009114;28;25069;-72
2021/09/05 07:37:46;;;;;;;26.13;15.90;;;15.30;99.90;;;;;;5009564;28;25065;-72
2021/09/05 07:40:13;;;;;;;23.77;15.82;;;15.40;99.90;;;;;;5011438;28;25056;-72
2021/09/05 07:42:39;;;;;;;21.88;15.23;;;15.50;99.90;;;;;;5009111;28;25068;-71
2021/09/05 07:45:06;;;;;;;28.25;17.48;;;15.70;99.90;;;;;;5005514;28;25053;-73
2021/09/05 07:47:32;;;;;;;26.30;16.00;;;15.70;99.90;;;;;;5005971;28;25054;-72
2021/09/05 07:49:58;;;;;;;25.98;15.98;;;15.80;99.90;;;;;;5011959;28;25054;-74
2021/09/05 07:52:24;;;;;;;23.42;15.68;;;15.80;99.90;;;;;;5002304;28;25056;-71
2021/09/05 07:54:50;;;;;;;27.27;17.10;;;15.80;99.90;;;;;;5000845;28;25068;-73
2021/09/05 07:57:16;;;;;;;27.38;16.00;;;15.90;99.90;;;;;;5003678;28;25132;-73
2021/09/05 07:59:41;;;;;;;21.77;15.07;;;16.10;99.90;;;;;;5006270;28;25150;-71
2021/09/05 08:02:08;;;;;;;23.10;14.63;;;16.20;99.90;;;;;;5004258;28;25092;-73
2021/09/05 08:04:33;;;;;;;28.05;14.98;;;16.20;99.90;;;;;;5004273;28;25063;-71
2021/09/05 08:06:59;;;;;;;21.38;15.70;;;16.20;99.90;;;;;;5002281;28;25106;-71
2021/09/05 08:09:24;;;;;;;23.50;15.57;;;16.40;99.90;;;;;;4995307;28;25070;-73
2021/09/05 08:11:50;;;;;;;22.88;14.63;;;16.50;99.90;;;;;;5005384;28;25125;-73
2021/09/05 08:14:16;;;;;;;22.35;15.57;;;16.60;99.90;;;;;;5001848;28;25063;-72
2021/09/05 08:16:41;;;;;;;19.23;14.15;;;16.70;99.90;;;;;;5009269;28;25173;-71
2021/09/05 08:19:07;;;;;;;25.50;15.57;;;16.90;99.90;;;;;;5000573;28;25056;-73
2021/09/05 08:21:33;;;;;;;24.15;15.32;;;16.90;99.90;;;;;;4999525;28;25110;-72
2021/09/05 08:23:58;;;;;;;22.90;16.10;;;17.00;99.90;;;;;;5001937;28;25060;-74
2021/09/05 08:26:25;;;;;;;22.88;16.05;;;17.20;99.90;;;;;;5003193;28;25113;-71
2021/09/05 08:28:52;;;;;;;23.92;15.35;;;17.20;99.90;;;;;;5001421;28;25067;-72
2021/09/05 08:31:18;;;;;;;25.13;16.40;;;17.40;99.90;;;;;;4994497;28;25075;-72
2021/09/05 08:33:44;;;;;;;24.55;15.80;;;17.70;99.90;;;;;;5001460;28;24967;-74
2021/09/05 08:36:10;;;;;;;25.90;16.52;;;17.80;99.90;;;;;;5005532;28;25162;-72
2021/09/05 08:38:36;;;;;;;20.80;14.57;;;17.70;99.90;;;;;;5003098;28;25097;-73
2021/09/05 08:41:02;;;;;;;20.88;14.88;;;17.80;99.90;;;;;;5002034;28;25058;-72
2021/09/05 08:43:28;;;;;;;22.55;14.90;;;18.10;99.90;;;;;;5004960;28;25119;-72
2021/09/05 08:45:54;;;;;;;27.63;14.30;;;18.20;99.90;;;;;;5011791;28;25069;-72
2021/09/05 08:48:21;;;;;;;20.70;14.40;;;18.50;99.90;;;;;;5007754;28;25073;-72
2021/09/05 08:50:49;;;;;;;18.90;13.73;;;18.80;99.90;;;;;;5003187;28;25050;-73
2021/09/05 08:53:16;;;;;;;21.10;14.48;;;18.60;99.90;;;;;;5007768;28;25062;-74
2021/09/05 08:55:42;;;;;;;23.42;15.27;;;18.50;99.90;;;;;;4997643;28;25061;-72
2021/09/05 08:58:08;;;;;;;23.27;13.88;;;18.30;99.90;;;;;;4996788;28;25119;-72
2021/09/05 09:00:35;;;;;;;24.23;15.05;;;18.50;99.90;;;;;;5003214;28;25099;-71
2021/09/05 09:03:02;;;;;;;23.88;13.15;;;18.50;99.90;;;;;;5006899;28;25075;-73
2021/09/05 09:05:33;;;;;;;20.13;14.52;;;18.90;99.90;;;;;;5002892;28;25093;-72
2021/09/05 09:08:11;;;;;;;24.25;14.20;;;19.10;99.90;;;;;;4995751;28;25170;-72
2021/09/05 09:10:58;;;;;;;20.65;13.50;;;19.30;99.90;;;;;;4994816;28;25054;-73
2021/09/05 09:13:25;;;;;;;21.95;14.43;;;19.40;99.90;;;;;;4998276;28;25108;-71
2021/09/05 09:15:50;;;;;;;18.77;13.77;;;19.50;99.90;;;;;;4996143;28;25164;-73
2021/09/05 09:18:26;;;;;;;17.98;12.15;;;19.10;99.90;;;;;;4991394;28;25104;-73
2021/09/05 09:20:54;;;;;;;20.55;14.00;;;19.20;99.90;;;;;;4995218;28;25065;-73
2021/09/05 09:23:23;;;;;;;21.70;13.73;;;19.50;99.90;;;;;;5000207;28;24718;-73
2021/09/05 09:25:53;;;;;;;23.08;14.07;;;19.30;99.90;;;;;;4998660;28;25069;-71
2021/09/05 09:28:33;;;;;;;21.20;12.55;;;19.30;99.90;;;;;;4998465;28;25098;-70
2021/09/05 09:31:03;;;;;;;20.95;12.93;;;19.50;99.90;;;;;;5000127;28;25063;-69
2021/09/05 09:33:30;;;;;;;21.85;12.68;;;19.40;99.90;;;;;;4997847;28;25068;-72
2021/09/05 09:36:01;;;;;;;21.90;13.13;;;19.20;99.90;;;;;;4999119;28;25069;-73
2021/09/05 09:38:29;;;;;;;23.15;12.55;;;19.30;99.90;;;;;;5002347;28;25052;-73
2021/09/05 09:41:10;;;;;;;19.15;12.20;;;19.60;99.90;;;;;;4991966;28;25096;-71
2021/09/05 09:43:48;;;;;;;22.05;11.95;;;19.70;99.90;;;;;;5002762;28;25080;-72
2021/09/05 09:46:16;;;;;;;22.98;12.20;;;19.70;99.90;;;;;;5002085;28;25109;-73
2021/09/05 09:48:47;;;;;;;18.10;11.98;;;19.90;99.90;;;;;;4995806;28;25055;-72
2021/09/05 09:51:13;;;;;;;20.08;12.52;;;19.70;99.90;;;;;;4996069;28;25052;-72
2021/09/05 09:53:40;;;;;;;20.33;12.23;;;19.90;99.90;;;;;;5008310;28;25161;-73
2021/09/05 09:56:10;;;;;;;24.52;12.75;;;19.90;99.90;;;;;;5007996;28;25131;-74
2021/09/05 09:58:36;;;;;;;20.05;12.02;;;19.80;99.90;;;;;;5009445;28;25060;-72
2021/09/05 10:01:03;;;;;;;17.52;11.63;;;19.70;99.90;;;;;;5008482;28;25100;-72
2021/09/05 10:03:31;;;;;;;18.75;12.02;;;19.70;99.90;;;;;;5009721;28;25079;-70
2021/09/05 10:06:02;;;;;;;20.77;11.63;;;19.70;99.90;;;;;;5009663;28;25087;-74
2021/09/05 10:08:33;;;;;;;20.67;11.43;;;19.70;99.90;;;;;;5001076;28;25066;-72
2021/09/05 10:10:59;;;;;;;23.20;12.70;;;19.70;99.90;;;;;;5008762;28;25097;-72
2021/09/05 10:13:29;;;;;;;19.67;11.45;;;19.80;99.90;;;;;;5009025;28;25102;-74
2021/09/05 10:15:57;;;;;;;22.73;12.73;;;19.60;99.90;;;;;;5008553;28;25060;-71
2021/09/05 10:18:50;;;;;;;19.40;12.48;;;19.50;99.90;;;;;;5022909;28;25078;-74
2021/09/05 10:21:28;;;;;;;20.95;12.43;;;19.50;99.90;;;;;;5028319;28;25085;-74
2021/09/05 10:24:00;;;;;;;22.52;12.88;;;19.60;99.90;;;;;;5027063;28;25073;-72
2021/09/05 10:26:27;;;;;;;21.25;12.02;;;19.50;99.90;;;;;;5022149;28;25156;-73
2021/09/05 10:28:58;;;;;;;19.98;12.70;;;19.60;99.90;;;;;;5008794;28;25059;-72
2021/09/05 10:31:29;;;;;;;21.90;12.85;;;19.90;99.90;;;;;;5010297;28;25076;-72
2021/09/05 10:33:55;;;;;;;21.85;12.82;;;20.10;99.90;;;;;;5008922;28;25164;-72
2021/09/05 10:36:24;;;;;;;21.75;13.50;;;20.10;99.90;;;;;;5008983;28;25078;-72
2021/09/05 10:39:02;;;;;;;29.50;13.40;;;20.00;99.90;;;;;;5009800;28;25070;-73
2021/09/05 10:41:28;;;;;;;18.25;12.90;;;19.90;99.90;;;;;;5005695;28;25057;-73
2021/09/05 10:43:58;;;;;;;20.60;12.40;;;19.90;99.90;;;;;;5009981;28;25053;-74
2021/09/05 10:46:32;;;;;;;21.27;12.85;;;20.10;99.90;;;;;;5012098;28;25074;-73
2021/09/05 10:48:59;;;;;;;19.15;11.68;;;20.00;99.90;;;;;;5010921;28;25098;-71
2021/09/05 10:51:26;;;;;;;17.77;12.75;;;20.00;99.90;;;;;;5007347;28;25097;-71
2021/09/05 10:53:59;;;;;;;21.23;13.45;;;20.10;99.90;;;;;;5007689;28;25056;-72
2021/09/05 10:56:24;;;;;;;20.75;12.35;;;20.10;99.90;;;;;;5011123;28;25130;-70
2021/09/05 10:59:07;;;;;;;18.85;11.57;;;20.20;99.90;;;;;;5013725;28;25128;-72
2021/09/05 11:01:40;;;;;;;20.70;12.18;;;20.30;99.90;;;;;;5008575;28;25059;-69
2021/09/05 11:04:11;;;;;;;17.27;11.48;;;20.50;99.90;;;;;;5001260;28;25071;-70
2021/09/05 11:06:42;;;;;;;19.50;11.88;;;20.40;99.90;;;;;;5005557;28;25088;-74
2021/09/05 11:09:27;;;;;;;21.55;12.93;;;20.40;99.90;;;;;;5009995;28;25063;-71
2021/09/05 11:12:14;;;;;;;19.73;13.52;;;20.70;99.90;;;;;;4990371;28;25068;-72
2021/09/05 11:14:45;;;;;;;19.23;12.48;;;20.90;99.90;;;;;;5010770;28;25068;-72
2021/09/05 11:17:16;;;;;;;21.00;11.97;;;20.90;99.90;;;;;;5010146;28;25065;-73
2021/09/05 11:19:49;;;;;;;20.13;12.57;;;21.10;99.90;;;;;;5008218;28;25063;-74
2021/09/05 11:22:23;;;;;;;19.33;12.90;;;21.20;99.90;;;;;;5007843;28;25144;-74
2021/09/05 11:25:26;;;;;;;19.17;12.93;;;21.20;99.90;;;;;;5001148;28;25081;-73
2021/09/05 11:28:01;;;;;;;20.77;13.15;;;21.20;99.90;;;;;;5006628;28;25058;-74
2021/09/05 11:30:31;;;;;;;21.02;12.25;;;21.50;99.90;;;;;;5008062;28;25065;-74
2021/09/05 11:33:08;;;;;;;18.25;12.00;;;21.90;99.90;;;;;;5017372;28;25057;-74
2021/09/05 11:36:00;;;;;;;17.27;11.05;;;22.20;99.90;;;;;;5002366;28;25079;-74
2021/09/05 11:38:28;;;;;;;17.45;11.82;;;22.30;99.90;;;;;;5002131;28;25083;-72
2021/09/05 11:40:55;;;;;;;19.45;11.15;;;22.60;99.90;;;;;;5015131;28;25062;-74
2021/09/05 11:43:38;;;;;;;21.08;11.27;;;22.90;99.90;;;;;;5006868;28;25142;-72
2021/09/05 11:46:10;;;;;;;17.52;12.18;;;23.60;99.90;;;;;;5012078;28;25050;-73
2021/09/05 11:48:36;;;;;;;20.08;12.88;;;24.00;99.90;;;;;;5013126;28;25054;-72
2021/09/05 11:51:02;;;;;;;17.60;11.93;;;24.30;99.90;;;;;;5012086;28;25095;-71
2021/09/05 11:53:28;;;;;;;17.23;12.65;;;24.10;99.90;;;;;;5010489;28;25057;-73
2021/09/05 11:55:54;;;;;;;16.83;11.00;;;24.00;99.90;;;;;;5011424;28;25077;-72
2021/09/05 11:58:20;;;;;;;19.85;12.38;;;24.30;99.90;;;;;;5022559;28;25141;-73
2021/09/05 12:00:46;;;;;;;16.83;10.63;;;24.70;99.90;;;;;;5022270;28;25073;-71
2021/09/05 12:03:21;;;;;;;15.98;12.32;;;24.90;99.90;;;;;;5016053;28;25088;-72
2021/09/05 12:05:47;;;;;;;16.73;12.02;;;24.70;99.70;;;;;;5009777;28;25075;-74
2021/09/05 12:08:16;;;;;;;20.25;11.48;;;24.40;99.70;;;;;;5011357;28;25112;-72
2021/09/05 12:10:44;;;;;;;17.48;12.02;;;24.10;99.90;;;;;;4997132;28;25082;-75
2021/09/05 12:13:12;;;;;;;20.35;12.27;;;24.00;99.90;;;;;;5005499;28;25065;-77
2021/09/05 12:15:43;;;;;;;13.75;11.23;;;24.60;99.90;;;;;;5007334;28;25070;-75
2021/09/05 12:18:23;;;;;;;15.32;11.43;;;24.40;99.90;;;;;;5004465;28;25067;-74
2021/09/05 12:21:00;;;;;;;18.88;10.75;;;24.40;99.90;;;;;;5001622;28;25144;-74
2021/09/05 12:23:32;;;;;;;20.83;12.40;;;24.10;99.90;;;;;;5004567;28;25074;-74
2021/09/05 12:26:01;;;;;;;15.77;11.35;;;24.10;99.90;;;;;;5012056;28;25064;-74
2021/09/05 12:28:27;;;;;;;19.33;10.93;;;24.20;99.90;;;;;;5008713;28;25159;-75
2021/09/05 12:30:59;;;;;;;17.85;10.98;;;24.40;99.80;;;;;;5002142;28;25111;-73